Ashburn, GA (31714)

11:54 PM EST on February 08, 2016 (GMT -0500)
APRSWXNET | | Change Station
CLOSE
Current Station
Personal Weather Station
Location: Ashburn, GA
Elevation: 452 ft
Nearby Weather Stations
Active Advisory: Freeze Watch

Elev 452 ft 31.71 °N, 83.65 °W | Updated 46 minutes ago

Clear
Clear
44 °F
Feels Like 41 °F
N
6
Wind Variable Wind from WNW
Gusts 10.0 mph

Today
High -- | Low -- °F
--% Chance of Precip.
Yesterday
High -- | Low -- °F
Precip. -- in
Pressure 29.88 in
Visibility 10.0 miles
Clouds Clear
Windchill 41 °F
Dew Point 28 °F
Humidity 53%
Rainfall in
Snow Depth Not available.
7:22 AM 6:14 PM
New Moon, 0% visible
METAR KCKF 090435Z AUTO 29010G14KT 10SM CLR 08/M03 A2988 RMK AO2 T00751030
Pressure 29.88 in
Visibility 10.0 miles
Clouds Clear
Windchill 41 °F
Dew Point 28 °F
Humidity 53%
Rainfall in
Snow Depth Not available.
7:22 AM 6:14 PM
New Moon, 0% visible
METAR KCKF 090435Z AUTO 29010G14KT 10SM CLR 08/M03 A2988 RMK AO2 T00751030

10-Day Weather Forecast

Almanac

Astronomy

Feb. 08, 2016 Rise Set
Actual Time
Civil Twilight
Nautical Twilight
Astronomical Twilight
Moon
Length of Visible Light
Length of Day
Tomorrow will be .
, % of the Moon is Illuminated

Today's Extremes

State Highs State Lows

Community

WunderPhotos

Upload Photos

1,891,549 photos uploaded!

WunderBlog® & News

Nearby

Air Quality

  Air Quality AQ Index Pollutant
Not available.

Snow Depth

Station Depth Elevation

Earthquake Activity

City Distance Mag. Time & Date
Minimum magnitude displayed is 2.5.

Coastal Water Temperatures

Place Temperature

Stations

Nearby Weather Stations

Station Location Temp. Windchill Dew Point Humidity Wind Precip. Elev Updated Type
                   

Watches & Warnings

Freeze Watch
Issued: 6:45 PM CST Feb. 8, 2016 – National Weather Service

... Freeze watch remains in effect from late Tuesday night through
Wednesday morning...

* this afternoon: west winds 20 to 25 mph with gusts near 40 mph
possible.

* Tuesday night and early Wednesday morning: lows 26 to 31
degrees... coldest in Alabama and Georgia.

Precautionary/preparedness actions...

A Wind Advisory means that sustained winds of 26 mph or peak
gusts to 40 mph are expected. Winds this strong can make driving
difficult... especially for high profile vehicles. Use extra
caution.

A freeze watch means sub-freezing temperatures are possible.
These conditions could kill crops and other sensitive vegetation.